Time;durP1;ratioP1;P1;durP2;ratioP2;P2;SDS_P1;SDS_P2;PMS_P1;PMS_P2;Temp;Humidity;BMP_temperature;BMP_pressure;BME280_temperature;BME280_humidity;BME280_pressure;Samples;Min_cycle;Max_cycle;Signal;HPM_P1;HPM_P2
2023/09/25 00:00:35;;;;;;;4.03;1.98;;;;;;;11.31;100.00;101967.38;5028843;28;20017;-64
2023/09/25 00:03:03;;;;;;;3.10;1.67;;;;;;;11.27;100.00;101959.44;5029532;28;20025;-64
2023/09/25 00:05:29;;;;;;;3.30;1.85;;;;;;;11.27;100.00;101959.44;5029276;28;20155;-64
2023/09/25 00:07:55;;;;;;;4.18;2.00;;;;;;;11.26;100.00;101962.84;5029068;28;20140;-63
2023/09/25 00:10:21;;;;;;;1.80;1.70;;;;;;;11.27;100.00;101967.22;5027950;28;20017;-65
2023/09/25 00:12:46;;;;;;;2.88;1.92;;;;;;;11.25;100.00;101968.84;5029104;28;20489;-63
2023/09/25 00:15:11;;;;;;;2.17;1.70;;;;;;;11.24;100.00;101969.66;5028283;28;20021;-65
2023/09/25 00:17:37;;;;;;;3.30;2.03;;;;;;;11.23;100.00;101970.47;5027935;28;20565;-62
2023/09/25 00:20:04;;;;;;;2.13;1.70;;;;;;;11.20;100.00;101966.84;5028259;28;20013;-63
2023/09/25 00:22:30;;;;;;;2.03;1.80;;;;;;;11.19;100.00;101965.94;5028981;28;20035;-64
2023/09/25 00:24:56;;;;;;;3.20;1.85;;;;;;;11.19;100.00;101976.31;5028346;28;20099;-64
2023/09/25 00:27:22;;;;;;;2.28;1.88;;;;;;;11.16;100.00;101966.72;5029205;28;20168;-64
2023/09/25 00:29:47;;;;;;;2.88;2.10;;;;;;;11.14;100.00;101967.44;5028066;28;20478;-63
2023/09/25 00:32:13;;;;;;;2.75;1.80;;;;;;;11.12;100.00;101974.25;5028132;28;20033;-63
2023/09/25 00:34:38;;;;;;;4.18;1.70;;;;;;;11.10;100.00;101966.41;5028200;28;20248;-64
2023/09/25 00:37:04;;;;;;;2.55;2.05;;;;;;;11.11;100.00;101967.31;5028541;28;20026;-64
2023/09/25 00:39:30;;;;;;;3.45;1.88;;;;;;;11.11;100.00;101967.31;5030064;28;20061;-63
2023/09/25 00:41:55;;;;;;;2.03;1.80;;;;;;;11.07;100.00;101966.25;5031604;28;20056;-64
2023/09/25 00:44:22;;;;;;;2.65;1.98;;;;;;;11.09;100.00;101968.94;5030958;28;20017;-64
2023/09/25 00:46:48;;;;;;;4.28;2.60;;;;;;;11.10;100.00;101970.72;5032488;28;20477;-64
2023/09/25 00:49:14;;;;;;;3.63;2.10;;;;;;;11.07;100.00;101970.56;5031593;28;20104;-64
2023/09/25 00:51:43;;;;;;;2.60;1.90;;;;;;;11.08;100.00;101972.34;5031409;28;20032;-64
2023/09/25 00:54:08;;;;;;;2.60;2.10;;;;;;;11.07;100.00;101973.16;5031454;28;20029;-64
2023/09/25 00:56:34;;;;;;;4.20;2.33;;;;;;;11.05;100.00;101968.78;5031504;28;20035;-64
2023/09/25 00:59:00;;;;;;;2.20;1.83;;;;;;;11.05;100.00;101971.38;5031180;28;20391;-64
2023/09/25 01:01:25;;;;;;;4.07;2.25;;;;;;;11.04;100.00;101974.78;5031825;28;20024;-64
2023/09/25 01:03:51;;;;;;;3.70;2.28;;;;;;;11.03;100.00;101975.59;5031667;28;20076;-64
2023/09/25 01:06:17;;;;;;;5.28;2.22;;;;;;;11.01;100.00;101974.63;5032008;28;20121;-64
2023/09/25 01:08:43;;;;;;;3.38;2.03;;;;;;;10.97;100.00;101970.13;5030725;28;20034;-64
2023/09/25 01:11:08;;;;;;;3.20;1.83;;;;;;;10.95;100.00;101973.47;5030841;28;20053;-64
2023/09/25 01:13:34;;;;;;;4.63;2.10;;;;;;;10.95;100.00;101976.94;5031050;28;20370;-63
2023/09/25 01:15:59;;;;;;;4.90;2.50;;;;;;;10.92;100.00;101979.38;5030257;28;20044;-64
2023/09/25 01:18:25;;;;;;;4.13;2.03;;;;;;;10.89;100.00;101981.81;5030832;28;20454;-64
2023/09/25 01:20:50;;;;;;;4.00;2.30;;;;;;;10.87;100.00;101978.25;5031292;28;20056;-63
2023/09/25 01:23:16;;;;;;;2.40;2.00;;;;;;;10.84;100.00;101976.41;5031175;28;20021;-64
2023/09/25 01:25:41;;;;;;;3.88;2.40;;;;;;;10.79;100.00;101971.00;5030940;28;20056;-64
2023/09/25 01:28:06;;;;;;;3.13;2.33;;;;;;;10.78;100.00;101969.22;5030718;28;20040;-64
2023/09/25 01:30:32;;;;;;;3.88;2.38;;;;;;;10.76;100.00;101964.75;5044808;28;20035;-65
2023/09/25 01:32:57;;;;;;;2.10;1.73;;;;;;;10.73;100.00;101965.53;5049403;28;20480;-64
2023/09/25 01:35:24;;;;;;;3.20;2.28;;;;;;;10.70;100.00;101962.78;5036634;28;20021;-64
2023/09/25 01:37:55;;;;;;;4.13;2.55;;;;;;;10.69;100.00;101958.38;5030855;28;20029;-64
2023/09/25 01:40:20;;;;;;;3.88;2.00;;;;;;;10.66;100.00;101961.75;5044073;28;20039;-64
2023/09/25 01:42:47;;;;;;;3.15;2.10;;;;;;;10.67;100.00;101966.09;5050036;28;20032;-64
2023/09/25 01:45:16;;;;;;;4.20;2.55;;;;;;;10.70;100.00;101965.38;5047837;28;20057;-64
2023/09/25 01:47:42;;;;;;;5.60;2.40;;;;;;;10.69;100.00;101958.38;5049395;28;20345;-64
2023/09/25 01:50:11;;;;;;;4.53;2.15;;;;;;;10.69;100.00;101964.47;5047301;28;20115;-64
2023/09/25 01:52:37;;;;;;;3.50;2.38;;;;;;;10.67;100.00;101965.19;5048851;28;20029;-64
2023/09/25 01:55:03;;;;;;;3.58;2.30;;;;;;;10.65;100.00;101961.66;5047841;28;20033;-65
2023/09/25 01:57:30;;;;;;;3.75;2.00;;;;;;;10.62;100.00;101959.78;5049165;28;20029;-64
2023/09/25 01:59:56;;;;;;;2.97;1.98;;;;;;;10.63;100.00;101963.28;5048332;28;20017;-64
2023/09/25 02:02:21;;;;;;;2.55;2.28;;;;;;;10.60;100.00;101960.53;5050086;28;20489;-64
2023/09/25 02:04:46;;;;;;;4.75;2.15;;;;;;;10.55;100.00;101950.84;5049003;28;20021;-64
2023/09/25 02:07:12;;;;;;;4.53;2.22;;;;;;;10.53;100.00;101954.16;5048494;28;20041;-64
2023/09/25 02:09:38;;;;;;;5.63;2.15;;;;;;;10.49;100.00;101950.50;5047465;28;20048;-64
2023/09/25 02:12:04;;;;;;;4.50;2.28;;;;;;;10.48;100.00;101953.94;5048798;28;20021;-64
2023/09/25 02:14:29;;;;;;;3.40;2.45;;;;;;;10.47;100.00;101957.28;5047549;28;20020;-63
2023/09/25 02:16:54;;;;;;;3.75;1.98;;;;;;;10.42;100.00;101951.88;5048653;28;20029;-63
2023/09/25 02:19:19;;;;;;;2.35;2.10;;;;;;;10.44;100.00;101954.53;5047049;28;20473;-64
2023/09/25 02:21:45;;;;;;;3.00;2.05;;;;;;;10.42;100.00;101945.78;5048507;28;20078;-64
2023/09/25 02:24:10;;;;;;;3.25;2.40;;;;;;;10.40;100.00;101942.22;5047303;28;20021;-64
2023/09/25 02:26:35;;;;;;;3.25;2.40;;;;;;;10.38;100.00;101946.47;5041317;28;20025;-64
2023/09/25 02:29:00;;;;;;;3.53;2.20;;;;;;;10.36;100.00;101942.91;5042549;28;20025;-62
2023/09/25 02:31:26;;;;;;;4.10;2.35;;;;;;;10.33;100.00;101943.63;5047848;28;20055;-64
2023/09/25 02:33:51;;;;;;;2.35;2.00;;;;;;;10.35;100.00;101946.28;5048191;28;20401;-64
2023/09/25 02:36:17;;;;;;;3.70;2.28;;;;;;;10.33;100.00;101949.72;5049194;28;20009;-64
2023/09/25 02:38:42;;;;;;;4.65;2.13;;;;;;;10.32;100.00;101949.63;5035266;28;20477;-63
2023/09/25 02:41:08;;;;;;;3.10;2.03;;;;;;;10.30;100.00;101944.38;5048494;28;20021;-64
2023/09/25 02:43:33;;;;;;;2.28;2.00;;;;;;;10.28;100.00;101938.22;5035936;28;20021;-64
2023/09/25 02:45:59;;;;;;;3.92;2.20;;;;;;;10.27;100.00;101949.38;5048894;28;20060;-63
2023/09/25 02:48:25;;;;;;;3.88;2.20;;;;;;;10.26;100.00;101947.63;5047394;28;20139;-63
2023/09/25 02:50:50;;;;;;;4.47;2.33;;;;;;;10.26;100.00;101947.63;5049704;28;20163;-64
2023/09/25 02:53:15;;;;;;;3.25;2.30;;;;;;;10.23;100.00;101951.75;5048053;28;20017;-64
2023/09/25 02:55:42;;;;;;;3.40;2.53;;;;;;;10.23;100.00;101949.16;5048545;28;20032;-63
2023/09/25 02:58:07;;;;;;;3.33;2.33;;;;;;;10.24;100.00;101950.94;5046904;28;20070;-64
2023/09/25 03:00:32;;;;;;;5.10;2.10;;;;;;;10.22;100.00;101945.69;5041172;28;20104;-64
2023/09/25 03:02:58;;;;;;;4.05;2.22;;;;;;;10.20;100.00;101947.28;5042609;28;20029;-64
2023/09/25 03:05:24;;;;;;;3.08;2.15;;;;;;;10.20;100.00;101944.69;5048555;28;20017;-64
2023/09/25 03:07:49;;;;;;;3.47;2.03;;;;;;;10.18;100.00;101943.75;5048070;28;20052;-64
2023/09/25 03:10:15;;;;;;;3.17;2.10;;;;;;;10.16;100.00;101953.16;5047502;28;20025;-63
2023/09/25 03:12:40;;;;;;;4.18;2.15;;;;;;;10.19;100.00;101950.72;5034414;28;20022;-64
2023/09/25 03:15:06;;;;;;;4.95;2.03;;;;;;;10.18;100.00;101948.94;5028699;28;20382;-63
2023/09/25 03:17:32;;;;;;;3.65;2.17;;;;;;;10.19;100.00;101950.72;5028958;28;20029;-64
2023/09/25 03:19:57;;;;;;;3.35;2.10;;;;;;;10.18;100.00;101948.94;5047345;28;20058;-64
2023/09/25 03:22:23;;;;;;;2.35;2.00;;;;;;;10.18;100.00;101944.63;5047762;28;20108;-63
2023/09/25 03:24:48;;;;;;;3.50;2.55;;;;;;;10.17;100.00;101948.03;5048399;28;20024;-64
2023/09/25 03:27:15;;;;;;;3.60;2.47;;;;;;;10.17;100.00;101947.16;5047745;28;20122;-63
2023/09/25 03:29:40;;;;;;;2.38;1.98;;;;;;;10.16;100.00;101945.38;5047890;28;20562;-63
2023/09/25 03:32:05;;;;;;;4.28;1.98;;;;;;;10.17;100.00;101947.16;5046265;28;20025;-63
2023/09/25 03:34:30;;;;;;;2.47;2.13;;;;;;;10.16;100.00;101942.78;5047340;28;20381;-64
2023/09/25 03:36:56;;;;;;;3.22;2.00;;;;;;;10.17;100.00;101948.03;5048109;28;20048;-63
2023/09/25 03:39:21;;;;;;;2.88;2.10;;;;;;;10.14;100.00;101947.00;5028245;28;20377;-63
2023/09/25 03:41:46;;;;;;;3.88;2.03;;;;;;;10.11;100.00;101946.84;5028977;28;20079;-63
2023/09/25 03:44:11;;;;;;;2.42;1.95;;;;;;;10.09;100.00;101947.63;5029220;28;20025;-64
2023/09/25 03:46:37;;;;;;;3.22;2.03;;;;;;;10.09;100.00;101945.03;5028191;28;20036;-64
2023/09/25 03:49:05;;;;;;;4.30;2.22;;;;;;;10.09;100.00;101939.00;5029231;28;20172;-64
2023/09/25 03:51:34;;;;;;;2.70;1.85;;;;;;;10.09;100.00;101944.19;5029096;28;20033;-62
2023/09/25 03:53:59;;;;;;;3.42;2.30;;;;;;;10.08;100.00;101940.69;5028460;28;20056;-63
2023/09/25 03:56:25;;;;;;;5.15;2.05;;;;;;;10.09;100.00;101947.63;5028844;28;20687;-63
2023/09/25 03:58:51;;;;;;;2.85;2.00;;;;;;;10.07;100.00;101950.97;5028616;28;20029;-63
2023/09/25 04:01:17;;;;;;;2.95;1.88;;;;;;;10.05;100.00;101948.31;5028918;28;20037;-64
2023/09/25 04:03:43;;;;;;;3.83;2.25;;;;;;;10.02;100.00;101950.72;5028892;28;20108;-64
2023/09/25 04:06:09;;;;;;;2.55;2.33;;;;;;;10.05;100.00;101958.66;5028332;28;20117;-63
2023/09/25 04:08:34;;;;;;;5.57;2.08;;;;;;;10.05;100.00;101958.66;5028584;28;20061;-63
2023/09/25 04:11:00;;;;;;;3.42;1.90;;;;;;;10.03;100.00;101955.09;5029073;28;20037;-64
2023/09/25 04:13:26;;;;;;;3.67;2.15;;;;;;;10.04;100.00;101959.47;5027763;28;20061;-64
2023/09/25 04:15:52;;;;;;;4.15;2.22;;;;;;;10.04;100.00;101962.03;5029171;28;20116;-63
2023/09/25 04:18:18;;;;;;;2.70;1.80;;;;;;;10.00;100.00;101959.22;5029092;28;20105;-63
2023/09/25 04:20:44;;;;;;;3.92;1.95;;;;;;;10.00;100.00;101954.06;5029233;28;20450;-63
2023/09/25 04:23:10;;;;;;;2.88;1.77;;;;;;;9.99;100.00;101960.03;5027884;28;20108;-63
2023/09/25 04:25:35;;;;;;;4.13;2.20;;;;;;;9.98;100.00;101953.97;5029341;28;20055;-63
2023/09/25 04:28:00;;;;;;;3.30;2.47;;;;;;;10.00;100.00;101960.09;5028688;28;20373;-64
2023/09/25 04:30:26;;;;;;;2.33;2.13;;;;;;;9.99;100.00;101962.63;5028548;28;20037;-64
2023/09/25 04:32:54;;;;;;;2.78;2.00;;;;;;;9.97;100.00;101954.75;5028355;28;20025;-64
2023/09/25 04:35:21;;;;;;;3.00;2.17;;;;;;;9.97;100.00;101965.13;5028552;28;20028;-64
2023/09/25 04:37:47;;;;;;;3.90;2.10;;;;;;;9.95;100.00;101959.88;5029076;28;20034;-64
2023/09/25 04:40:21;;;;;;;2.42;1.77;;;;;;;9.92;100.00;101964.91;5040697;28;20408;-64
2023/09/25 04:42:47;;;;;;;3.50;2.08;;;;;;;9.93;100.00;101973.56;5023939;28;20021;-64
2023/09/25 04:45:13;;;;;;;3.10;1.92;;;;;;;9.91;100.00;101970.00;5045853;28;20495;-64
2023/09/25 04:47:41;;;;;;;4.65;2.38;;;;;;;9.89;100.00;101969.91;5047481;28;20076;-65
2023/09/25 04:50:08;;;;;;;2.35;2.15;;;;;;;9.89;100.00;101972.50;5047203;28;20040;-64
2023/09/25 04:52:34;;;;;;;3.40;2.22;;;;;;;9.87;100.00;101970.63;5047855;28;20436;-64
2023/09/25 04:54:59;;;;;;;2.35;1.85;;;;;;;9.87;100.00;101973.22;5047420;28;20507;-64
2023/09/25 04:57:25;;;;;;;3.25;2.17;;;;;;;9.87;100.00;101970.63;5047099;28;20021;-65
2023/09/25 04:59:50;;;;;;;2.92;2.20;;;;;;;9.82;100.00;101973.84;5046447;28;20025;-64
2023/09/25 05:02:15;;;;;;;3.50;2.25;;;;;;;9.82;100.00;101963.50;5032087;28;21322;-63
2023/09/25 05:04:40;;;;;;;3.90;1.73;;;;;;;9.83;100.00;101967.00;5027089;28;20485;-62
2023/09/25 05:07:06;;;;;;;3.28;2.22;;;;;;;9.81;100.00;101969.50;5022322;28;20090;-64
2023/09/25 05:09:31;;;;;;;3.75;2.80;;;;;;;9.80;100.00;101965.16;5016301;28;20099;-63
2023/09/25 05:11:56;;;;;;;2.88;2.17;;;;;;;9.81;100.00;101973.78;5020987;28;20026;-64
2023/09/25 05:14:22;;;;;;;2.30;1.98;;;;;;;9.81;100.00;101969.50;5020437;28;20374;-64
2023/09/25 05:16:47;;;;;;;2.53;1.70;;;;;;;9.83;100.00;101982.53;5018298;28;20489;-62
2023/09/25 05:19:13;;;;;;;4.50;2.10;;;;;;;9.84;100.00;101974.84;5023831;28;20474;-64
2023/09/25 05:21:38;;;;;;;2.90;1.85;;;;;;;9.82;100.00;101980.75;5021329;28;20527;-63
2023/09/25 05:24:04;;;;;;;3.35;1.98;;;;;;;9.84;100.00;101974.84;5020058;28;20044;-64
2023/09/25 05:26:35;;;;;;;3.22;2.35;;;;;;;9.83;100.00;101977.34;5021749;28;20457;-64
2023/09/25 05:29:00;;;;;;;2.00;1.73;;;;;;;9.82;100.00;101978.16;5023651;28;20054;-63
2023/09/25 05:31:26;;;;;;;3.55;2.22;;;;;;;9.81;100.00;101978.97;5024010;28;20474;-63
2023/09/25 05:33:51;;;;;;;5.07;2.17;;;;;;;9.82;100.00;101983.34;5021481;28;20117;-64
2023/09/25 05:36:16;;;;;;;2.83;2.17;;;;;;;9.80;100.00;101983.25;5034112;28;20040;-63
2023/09/25 05:38:41;;;;;;;2.70;2.00;;;;;;;9.79;100.00;101976.28;5034469;28;20083;-63
2023/09/25 05:41:07;;;;;;;3.17;2.35;;;;;;;9.80;100.00;101982.38;5051192;28;20023;-64
2023/09/25 05:43:33;;;;;;;3.85;2.28;;;;;;;9.80;100.00;101988.44;5041586;28;20028;-63
2023/09/25 05:45:58;;;;;;;3.15;2.22;;;;;;;9.82;100.00;101986.81;5029987;28;20037;-63
2023/09/25 05:48:24;;;;;;;3.13;2.15;;;;;;;9.82;100.00;101991.97;5042285;28;20091;-64
2023/09/25 05:50:50;;;;;;;2.92;2.28;;;;;;;9.82;100.00;101986.81;5036806;28;20037;-63
2023/09/25 05:53:15;;;;;;;3.83;2.60;;;;;;;9.83;100.00;101988.59;5041269;28;20082;-64
2023/09/25 05:55:40;;;;;;;3.08;2.08;;;;;;;9.84;100.00;101985.19;5029974;28;20025;-63
2023/09/25 05:58:06;;;;;;;3.30;2.35;;;;;;;9.85;100.00;101986.09;5031765;28;20031;-64
2023/09/25 06:00:34;;;;;;;3.88;2.47;;;;;;;9.88;100.00;101986.25;5030120;28;20029;-63
2023/09/25 06:02:59;;;;;;;3.35;2.15;;;;;;;9.88;100.00;101990.53;5031891;28;20022;-63
2023/09/25 06:05:24;;;;;;;3.63;2.13;;;;;;;9.90;100.00;101988.91;5034341;28;20020;-63
2023/09/25 06:07:50;;;;;;;4.55;2.58;;;;;;;9.92;100.00;101993.38;5045749;28;20073;-63
2023/09/25 06:10:17;;;;;;;2.63;2.40;;;;;;;9.97;100.00;101991.03;5039266;28;20033;-63
2023/09/25 06:12:44;;;;;;;2.88;1.90;;;;;;;10.00;100.00;102006.72;5040110;28;20031;-63
2023/09/25 06:15:10;;;;;;;4.47;1.77;;;;;;;10.03;100.00;101995.63;5035012;28;20021;-62
2023/09/25 06:17:36;;;;;;;4.10;2.63;;;;;;;10.07;100.00;101998.47;5037776;28;20106;-62
2023/09/25 06:20:04;;;;;;;3.25;2.10;;;;;;;10.11;100.00;101990.88;5030412;28;20029;-62
2023/09/25 06:22:29;;;;;;;2.80;1.92;;;;;;;10.14;100.00;101991.94;5031993;28;20029;-62
2023/09/25 06:24:56;;;;;;;2.72;2.13;;;;;;;10.20;100.00;101993.91;5030363;28;20034;-63
2023/09/25 06:27:21;;;;;;;3.67;2.17;;;;;;;10.22;100.00;101992.31;5031406;28;20025;-63
2023/09/25 06:29:46;;;;;;;4.75;2.40;;;;;;;10.28;100.00;101997.81;5030784;28;20276;-62
2023/09/25 06:32:12;;;;;;;4.28;2.20;;;;;;;10.31;100.00;101997.97;5029495;28;20375;-63
2023/09/25 06:34:38;;;;;;;3.97;2.50;;;;;;;10.35;100.00;101999.00;5028609;28;20057;-62
2023/09/25 06:37:05;;;;;;;4.75;2.25;;;;;;;10.42;100.00;102000.22;5031263;28;20108;-64
2023/09/25 06:39:30;;;;;;;2.55;2.28;;;;;;;10.48;100.00;102000.56;5029529;28;20368;-64
2023/09/25 06:41:55;;;;;;;3.53;2.35;;;;;;;10.54;100.00;102000.00;5029527;28;20435;-63
2023/09/25 06:44:21;;;;;;;2.60;2.03;;;;;;;10.63;100.00;102000.44;5029256;28;20128;-64
2023/09/25 06:46:46;;;;;;;3.00;2.20;;;;;;;10.72;100.00;102007.78;5029042;28;20021;-63
2023/09/25 06:49:11;;;;;;;2.20;2.00;;;;;;;10.79;100.00;102006.41;5029375;28;20567;-64
2023/09/25 06:51:37;;;;;;;3.20;2.08;;;;;;;10.87;100.00;102004.19;5030748;28;20104;-63
2023/09/25 06:54:03;;;;;;;3.35;2.00;;;;;;;10.92;100.00;102000.13;5029892;28;20109;-63
2023/09/25 06:56:28;;;;;;;3.22;2.00;;;;;;;10.99;100.00;101997.00;5030352;28;20287;-62
2023/09/25 06:58:53;;;;;;;3.65;2.10;;;;;;;11.07;100.00;102009.47;5028113;28;20034;-63
2023/09/25 07:01:20;;;;;;;3.42;2.80;;;;;;;11.15;100.00;102003.84;5027428;28;20037;-65
2023/09/25 07:03:45;;;;;;;3.53;2.50;;;;;;;11.24;100.00;102000.78;5026800;28;20211;-63
2023/09/25 07:06:10;;;;;;;3.20;2.58;;;;;;;11.33;100.00;101996.88;5027502;28;20104;-63
2023/09/25 07:08:38;;;;;;;4.80;2.10;;;;;;;11.41;100.00;101998.09;5026364;28;20095;-63
2023/09/25 07:11:03;;;;;;;1.95;1.70;;;;;;;11.50;100.00;102003.75;5028388;28;20033;-63
2023/09/25 07:13:29;;;;;;;3.08;2.17;;;;;;;11.61;100.00;101988.66;5016291;28;20477;-64
2023/09/25 07:16:04;;;;;;;2.28;1.60;;;;;;;11.71;100.00;101995.16;5030191;28;20377;-63
2023/09/25 07:18:30;;;;;;;3.15;1.95;;;;;;;11.83;100.00;102000.03;5029643;28;20025;-64
2023/09/25 07:20:55;;;;;;;4.68;2.20;;;;;;;11.94;100.00;102004.81;5030829;28;20591;-64
2023/09/25 07:23:20;;;;;;;2.85;2.13;;;;;;;12.04;100.00;102006.13;5029795;28;20056;-64
2023/09/25 07:25:46;;;;;;;2.38;2.13;;;;;;;12.17;100.00;101999.78;5032271;28;20028;-64
2023/09/25 07:28:11;;;;;;;3.92;2.13;;;;;;;12.30;100.00;101998.63;5030384;28;20518;-64
2023/09/25 07:30:42;;;;;;;2.85;2.55;;;;;;;12.63;100.00;101998.28;5031376;28;20021;-63
2023/09/25 07:33:07;;;;;;;2.65;2.08;;;;;;;13.19;100.00;102004.84;5030615;28;20100;-64
2023/09/25 07:35:34;;;;;;;3.53;1.90;;;;;;;13.87;100.00;102005.72;5032129;28;20550;-64
2023/09/25 07:38:00;;;;;;;2.40;1.70;;;;;;;14.35;100.00;102002.22;5029906;28;20104;-64
2023/09/25 07:40:26;;;;;;;3.95;2.05;;;;;;;14.89;100.00;102008.34;5041170;28;20099;-64
2023/09/25 07:42:52;;;;;;;2.10;1.58;;;;;;;15.29;100.00;102012.22;5036356;28;20036;-64
2023/09/25 07:45:22;;;;;;;3.83;1.85;;;;;;;15.56;98.30;102012.16;5047078;28;20043;-64
2023/09/25 07:47:48;;;;;;;2.78;1.70;;;;;;;15.69;95.01;102007.28;5038914;28;20297;-65
2023/09/25 07:50:13;;;;;;;4.35;1.80;;;;;;;15.93;94.63;102008.84;5029761;28;20121;-65
2023/09/25 07:52:40;;;;;;;1.70;1.30;;;;;;;16.30;92.80;102004.66;5039103;28;20022;-63
2023/09/25 07:55:11;;;;;;;2.83;1.70;;;;;;;16.39;90.08;102010.97;5042753;28;20484;-64
2023/09/25 07:57:40;;;;;;;2.58;1.75;;;;;;;16.58;88.90;102008.84;5047710;28;20031;-64
2023/09/25 08:00:12;;;;;;;3.10;1.70;;;;;;;16.67;88.00;102003.84;5047304;28;20025;-64
2023/09/25 08:02:39;;;;;;;7.20;2.60;;;;;;;16.72;88.19;102010.09;5047981;28;20455;-64
2023/09/25 08:05:06;;;;;;;4.30;1.70;;;;;;;16.89;88.66;102014.88;5047436;28;20021;-64
2023/09/25 08:07:32;;;;;;;3.92;1.75;;;;;;;16.94;87.07;102021.09;5046894;28;20270;-64
2023/09/25 08:09:59;;;;;;;2.70;1.35;;;;;;;17.03;85.74;102017.81;5046989;28;20017;-63
2023/09/25 08:12:24;;;;;;;4.70;2.05;;;;;;;17.03;86.86;102023.94;5047141;28;20452;-64
2023/09/25 08:14:50;;;;;;;3.78;1.73;;;;;;;17.16;84.22;102024.25;5046732;28;20040;-65
2023/09/25 08:17:15;;;;;;;2.58;1.58;;;;;;;17.09;83.84;102014.47;5046788;28;20036;-64
2023/09/25 08:19:40;;;;;;;2.70;1.52;;;;;;;17.18;84.51;102021.69;5046186;28;20027;-64
2023/09/25 08:22:07;;;;;;;2.10;1.55;;;;;;;17.26;80.69;102018.38;5046797;28;20025;-64
2023/09/25 08:24:32;;;;;;;3.03;1.85;;;;;;;17.18;80.48;102019.91;5042512;28;20381;-64
2023/09/25 08:26:57;;;;;;;2.05;1.63;;;;;;;17.07;82.13;102014.41;5031257;28;20033;-64
2023/09/25 08:29:22;;;;;;;1.80;1.23;;;;;;;17.05;82.47;102014.34;5027078;28;20103;-64
2023/09/25 08:31:48;;;;;;;2.53;1.67;;;;;;;17.20;83.90;102012.97;5027654;28;20025;-64
2023/09/25 08:34:13;;;;;;;5.60;1.70;;;;;;;17.45;84.08;102012.66;5027676;28;20391;-63
2023/09/25 08:36:39;;;;;;;2.40;1.38;;;;;;;17.66;83.04;102012.25;5027951;28;20025;-64
2023/09/25 08:39:04;;;;;;;2.35;1.60;;;;;;;17.77;80.79;102013.34;5027495;28;20390;-64
2023/09/25 08:41:31;;;;;;;2.42;1.60;;;;;;;17.99;77.87;102011.16;5037338;28;20037;-65
2023/09/25 08:43:57;;;;;;;3.55;1.85;;;;;;;18.13;78.31;102000.06;5029887;28;20025;-64
2023/09/25 08:46:24;;;;;;;1.95;1.50;;;;;;;18.23;77.99;102002.03;5027386;28;20028;-65
2023/09/25 08:48:56;;;;;;;4.82;1.60;;;;;;;18.31;77.86;102001.28;5044459;28;20021;-65
2023/09/25 08:51:24;;;;;;;4.22;1.55;;;;;;;18.35;76.73;101992.59;5046548;28;20116;-65
2023/09/25 08:53:51;;;;;;;2.17;1.20;;;;;;;18.39;76.77;101988.28;5041172;28;20017;-64
2023/09/25 08:56:17;;;;;;;2.30;1.38;;;;;;;18.57;74.85;101992.97;5039238;28;20032;-65
2023/09/25 08:58:45;;;;;;;3.05;1.63;;;;;;;18.59;74.49;101992.16;5041597;28;20426;-65
2023/09/25 09:01:11;;;;;;;2.17;1.63;;;;;;;18.54;73.41;101993.81;5045637;28;20533;-64
2023/09/25 09:03:36;;;;;;;1.80;1.48;;;;;;;18.67;74.63;101994.88;5039463;28;20100;-64
2023/09/25 09:06:03;;;;;;;2.67;1.38;;;;;;;18.60;73.86;101996.53;5030342;28;20025;-64
2023/09/25 09:08:29;;;;;;;2.45;1.38;;;;;;;18.56;74.08;101999.97;5030426;28;20509;-64
2023/09/25 09:10:55;;;;;;;3.47;1.33;;;;;;;18.49;74.61;101995.47;5030645;28;20035;-65
2023/09/25 09:13:23;;;;;;;3.22;1.60;;;;;;;18.57;73.74;102003.47;5032204;28;20501;-65
2023/09/25 09:15:52;;;;;;;2.10;1.45;;;;;;;18.55;75.22;101992.94;5032885;28;20112;-65
2023/09/25 09:18:22;;;;;;;1.73;1.27;;;;;;;18.50;77.03;101996.34;5030167;28;20052;-64
2023/09/25 09:20:48;;;;;;;2.83;1.17;;;;;;;18.61;77.90;102000.06;5032952;28;20100;-64
2023/09/25 09:23:14;;;;;;;6.78;1.50;;;;;;;18.52;76.54;101992.00;5030828;28;20389;-65
2023/09/25 09:25:40;;;;;;;1.85;1.38;;;;;;;18.45;77.11;101984.06;5033890;28;20124;-65
2023/09/25 09:28:05;;;;;;;4.40;2.20;;;;;;;18.40;77.08;101980.47;5034365;28;20437;-65
2023/09/25 09:30:31;;;;;;;2.38;1.35;;;;;;;18.33;76.19;101989.94;5033426;28;20036;-64
2023/09/25 09:32:58;;;;;;;2.10;1.40;;;;;;;18.28;76.13;101995.97;5031949;28;20371;-65
2023/09/25 09:35:27;;;;;;;5.05;1.80;;;;;;;18.19;78.16;101994.06;5033164;28;20107;-64
2023/09/25 09:37:54;;;;;;;3.33;1.73;;;;;;;17.95;77.75;101996.19;5032074;28;20042;-65
2023/09/25 09:40:21;;;;;;;2.92;1.60;;;;;;;17.92;82.95;101996.16;5039517;28;20384;-64
2023/09/25 09:42:48;;;;;;;3.80;1.45;;;;;;;17.84;80.98;101996.03;5042370;28;20487;-64
2023/09/25 09:45:14;;;;;;;3.15;1.60;;;;;;;17.78;83.09;101990.63;5044102;28;20040;-65
2023/09/25 09:47:42;;;;;;;3.42;1.42;;;;;;;17.84;83.43;101990.78;5036185;28;20025;-65
2023/09/25 09:50:09;;;;;;;2.55;1.40;;;;;;;17.93;85.08;101987.44;5039020;28;20021;-65
2023/09/25 09:52:36;;;;;;;2.08;1.45;;;;;;;17.95;82.97;101993.56;5044227;28;20036;-65
2023/09/25 09:55:03;;;;;;;3.58;1.42;;;;;;;18.02;84.58;101999.84;5044619;28;20033;-65
2023/09/25 09:57:30;;;;;;;2.45;1.20;;;;;;;18.00;84.00;102007.69;5048980;28;20028;-64
2023/09/25 09:59:56;;;;;;;2.22;1.45;;;;;;;18.02;82.45;102005.09;5047060;28;20021;-65
2023/09/25 10:02:21;;;;;;;2.03;1.40;;;;;;;18.08;83.66;102004.34;5049299;28;20021;-64
2023/09/25 10:04:47;;;;;;;2.08;1.52;;;;;;;17.97;80.11;102012.84;5048344;28;20024;-65
2023/09/25 10:07:12;;;;;;;2.47;1.48;;;;;;;17.97;82.61;102007.59;5048306;28;20459;-65
2023/09/25 10:09:56;;;;;;;2.60;1.83;;;;;;;17.98;83.89;102014.63;5047712;28;20460;-65
2023/09/25 10:12:50;;;;;;;2.60;1.80;;;;;;;17.95;81.33;102019.81;5047678;28;20511;-64
2023/09/25 10:15:23;;;;;;;3.28;1.55;;;;;;;18.02;83.02;102005.09;5025106;28;20266;-65
2023/09/25 10:17:49;;;;;;;2.50;1.27;;;;;;;18.10;84.91;101999.97;5044204;28;20045;-65
2023/09/25 10:20:33;;;;;;;3.47;1.77;;;;;;;18.14;84.28;101999.22;5046954;28;20024;-65
2023/09/25 10:23:05;;;;;;;3.55;1.20;;;;;;;18.24;85.71;102002.91;5042361;28;20061;-65
2023/09/25 10:25:32;;;;;;;2.28;1.30;;;;;;;18.33;86.86;101999.56;5045487;28;20029;-64
2023/09/25 10:27:57;;;;;;;3.33;1.27;;;;;;;18.37;84.76;101996.13;5040961;28;20446;-64
2023/09/25 10:30:23;;;;;;;3.50;1.45;;;;;;;18.43;86.78;101993.63;5045528;28;20295;-64
2023/09/25 10:32:50;;;;;;;2.90;1.40;;;;;;;18.51;83.61;101998.13;5041285;28;20025;-64
2023/09/25 10:35:49;;;;;;;1.40;1.20;;;;;;;18.60;84.79;102001.78;5045358;28;20032;-64
2023/09/25 10:38:21;;;;;;;1.52;1.10;;;;;;;18.65;86.05;102001.88;5018093;28;20432;-64
2023/09/25 10:40:49;;;;;;;3.40;1.15;;;;;;;18.69;83.52;102010.69;5045400;28;20028;-65
2023/09/25 10:43:17;;;;;;;4.90;1.40;;;;;;;18.78;84.67;102008.19;5035998;28;20080;-64
2023/09/25 10:45:42;;;;;;;2.72;1.27;;;;;;;18.85;80.69;102009.19;5032302;28;20132;-64
2023/09/25 10:48:08;;;;;;;2.60;1.30;;;;;;;18.92;83.67;102005.81;5047720;28;20607;-64
2023/09/25 10:50:34;;;;;;;2.30;1.38;;;;;;;18.99;81.97;102001.53;5046837;28;20036;-64
2023/09/25 10:52:59;;;;;;;2.15;1.20;;;;;;;19.09;82.31;101997.28;5048298;28;20052;-64
2023/09/25 10:55:24;;;;;;;2.10;1.23;;;;;;;19.19;82.17;101993.09;5048285;28;20021;-64
2023/09/25 10:57:50;;;;;;;1.45;0.98;;;;;;;19.29;82.70;101986.22;5048768;28;20040;-64
2023/09/25 11:00:18;;;;;;;4.07;1.40;;;;;;;19.35;80.11;101988.94;5048539;28;20021;-64
2023/09/25 11:02:43;;;;;;;3.42;1.40;;;;;;;19.43;79.45;101986.38;5037233;28;20123;-64
2023/09/25 11:05:11;;;;;;;2.35;1.30;;;;;;;19.52;78.95;101990.88;5029346;28;20096;-64
2023/09/25 11:07:37;;;;;;;1.80;1.13;;;;;;;19.54;80.17;101990.06;5028726;28;20045;-64
2023/09/25 11:10:03;;;;;;;2.72;1.42;;;;;;;19.62;79.14;101992.78;5028593;28;20092;-64
2023/09/25 11:12:32;;;;;;;3.80;1.63;;;;;;;19.73;78.87;102002.53;5028853;28;20029;-64
2023/09/25 11:14:58;;;;;;;2.03;1.00;;;;;;;19.82;78.26;102002.66;5029803;28;20021;-64
2023/09/25 11:17:24;;;;;;;4.22;1.42;;;;;;;19.80;76.44;101996.50;5029192;28;20372;-65